Time;durP1;ratioP1;P1;durP2;ratioP2;P2;SDS_P1;SDS_P2;PMS_P1;PMS_P2;Temp;Humidity;BMP_temperature;BMP_pressure;BME280_temperature;BME280_humidity;BME280_pressure;Samples;Min_cycle;Max_cycle;Signal;HPM_P1;HPM_P2
2022/09/17 00:00:40;;;;;;;2.83;1.17;;;;;;;;;;5090074;28;20032;-77
2022/09/17 00:03:08;;;;;;;4.50;1.45;;;;;;;;;;5071601;28;20032;-77
2022/09/17 00:05:36;;;;;;;4.20;1.40;;;;;;;;;;5089946;28;20112;-77
2022/09/17 00:08:05;;;;;;;4.35;1.48;;;;;;;;;;5093540;28;20071;-77
2022/09/17 00:10:32;;;;;;;3.60;1.40;;;;;;;;;;5093916;28;20028;-77
2022/09/17 00:12:57;;;;;;;5.60;1.40;;;;;;;;;;5093508;28;20038;-77
2022/09/17 00:15:22;;;;;;;4.85;1.40;;;;;;;;;;5093808;28;20032;-77
2022/09/17 00:17:54;;;;;;;4.95;1.58;;;;;;;;;;5093637;28;20031;-77
2022/09/17 00:20:20;;;;;;;4.22;1.50;;;;;;;;;;5093984;28;20103;-77
2022/09/17 00:22:46;;;;;;;4.75;1.40;;;;;;;;;;5075304;28;20088;-78
2022/09/17 00:25:11;;;;;;;3.35;1.42;;;;;;;;;;5093988;28;20028;-77
2022/09/17 00:27:36;;;;;;;3.90;1.40;;;;;;;;;;5093053;28;20585;-77
2022/09/17 00:30:02;;;;;;;4.07;1.60;;;;;;;;;;5093465;28;20024;-77
2022/09/17 00:32:29;;;;;;;4.55;1.67;;;;;;;;;;5093182;28;20024;-77
2022/09/17 00:34:54;;;;;;;4.70;1.30;;;;;;;;;;5093754;28;20035;-77
2022/09/17 00:37:20;;;;;;;4.15;1.30;;;;;;;;;;5093309;28;20515;-76
2022/09/17 00:39:45;;;;;;;5.32;1.52;;;;;;;;;;5093291;28;20031;-77
2022/09/17 00:42:12;;;;;;;2.22;1.33;;;;;;;;;;5093313;28;20038;-77
2022/09/17 00:44:52;;;;;;;4.22;1.58;;;;;;;;;;5093288;28;20024;-77
2022/09/17 00:47:30;;;;;;;4.47;1.58;;;;;;;;;;5093181;28;20031;-77
2022/09/17 00:50:04;;;;;;;4.43;1.50;;;;;;;;;;5093082;28;20024;-77
2022/09/17 00:52:35;;;;;;;4.65;1.40;;;;;;;;;;5092957;28;20418;-77
2022/09/17 00:55:22;;;;;;;4.68;1.58;;;;;;;;;;5093452;28;20690;-77
2022/09/17 00:57:50;;;;;;;8.45;1.50;;;;;;;;;;5092681;28;20036;-77
2022/09/17 01:00:16;;;;;;;2.40;1.30;;;;;;;;;;5093148;28;20027;-77
2022/09/17 01:02:42;;;;;;;4.47;1.40;;;;;;;;;;5074603;28;20035;-77
2022/09/17 01:05:09;;;;;;;3.33;1.30;;;;;;;;;;5092867;28;20066;-79
2022/09/17 01:08:01;;;;;;;3.78;1.35;;;;;;;;;;5092800;28;20043;-79
2022/09/17 01:10:40;;;;;;;5.70;1.50;;;;;;;;;;5092901;28;20116;-78
2022/09/17 01:13:44;;;;;;;3.55;1.45;;;;;;;;;;5092527;28;20028;-79
2022/09/17 01:16:18;;;;;;;4.47;1.80;;;;;;;;;;5092849;28;20035;-79
2022/09/17 01:19:02;;;;;;;5.07;1.90;;;;;;;;;;5092163;28;20024;-78
2022/09/17 01:21:37;;;;;;;4.20;1.80;;;;;;;;;;5092494;28;20415;-78
2022/09/17 01:24:27;;;;;;;6.35;1.98;;;;;;;;;;5092407;28;20130;-76
2022/09/17 01:26:56;;;;;;;4.88;1.80;;;;;;;;;;5092716;28;20028;-76
2022/09/17 01:29:43;;;;;;;4.28;1.40;;;;;;;;;;5092157;28;20024;-76
2022/09/17 01:32:52;;;;;;;5.88;1.60;;;;;;;;;;5092629;28;20028;-78
2022/09/17 01:35:39;;;;;;;4.37;1.53;;;;;;;;;;5048625;28;20081;-76
2022/09/17 01:38:24;;;;;;;9.45;1.63;;;;;;;;;;5092076;28;20024;-76
2022/09/17 01:40:59;;;;;;;4.63;1.60;;;;;;;;;;5092118;28;20465;-77
2022/09/17 01:43:53;;;;;;;3.20;1.42;;;;;;;;;;5091814;28;20027;-78
2022/09/17 01:46:25;;;;;;;4.03;1.45;;;;;;;;;;5092316;28;20537;-78
2022/09/17 01:48:58;;;;;;;4.68;1.42;;;;;;;;;;5091870;28;20032;-79
2022/09/17 01:51:26;;;;;;;3.13;1.40;;;;;;;;;;5092272;28;20035;-78
2022/09/17 01:53:51;;;;;;;3.97;1.30;;;;;;;;;;5091726;28;20549;-79
2022/09/17 01:56:25;;;;;;;5.15;1.50;;;;;;;;;;5092027;28;20016;-80
2022/09/17 01:59:00;;;;;;;3.50;1.40;;;;;;;;;;5091504;28;20103;-80
2022/09/17 02:01:29;;;;;;;3.97;1.50;;;;;;;;;;5091921;28;20119;-80
2022/09/17 02:04:08;;;;;;;3.47;1.48;;;;;;;;;;5091762;28;20081;-80
2022/09/17 02:06:39;;;;;;;3.83;1.67;;;;;;;;;;5091793;28;20123;-80
2022/09/17 02:09:15;;;;;;;4.07;1.90;;;;;;;;;;5091432;28;20455;-80
2022/09/17 02:11:46;;;;;;;5.18;1.85;;;;;;;;;;5091601;28;20027;-80
2022/09/17 02:14:38;;;;;;;4.28;1.55;;;;;;;;;;5091197;28;20032;-80
2022/09/17 02:17:15;;;;;;;4.28;1.38;;;;;;;;;;5091430;28;20504;-80
2022/09/17 02:19:41;;;;;;;5.10;1.48;;;;;;;;;;5091104;28;20037;-79
2022/09/17 02:22:37;;;;;;;5.72;1.48;;;;;;;;;;5091597;28;20024;-78
2022/09/17 02:25:05;;;;;;;5.18;1.40;;;;;;;;;;5091371;28;20035;-80
2022/09/17 02:27:47;;;;;;;4.63;1.30;;;;;;;;;;5091353;28;20050;-80
2022/09/17 02:30:14;;;;;;;3.67;1.30;;;;;;;;;;5090245;28;20031;-80
2022/09/17 02:32:41;;;;;;;2.72;1.30;;;;;;;;;;5091345;28;20032;-80
2022/09/17 02:35:07;;;;;;;7.35;1.40;;;;;;;;;;5090919;28;20035;-80
2022/09/17 02:37:33;;;;;;;3.72;1.30;;;;;;;;;;5091237;28;20051;-79
2022/09/17 02:39:59;;;;;;;5.78;1.73;;;;;;;;;;5090921;28;20078;-79
2022/09/17 02:42:50;;;;;;;4.38;1.50;;;;;;;;;;5090819;28;20036;-80
2022/09/17 02:45:27;;;;;;;3.15;1.25;;;;;;;;;;5090918;28;20024;-79
2022/09/17 02:48:18;;;;;;;4.82;1.20;;;;;;;;;;5091164;28;20063;-80
2022/09/17 02:50:55;;;;;;;7.35;1.40;;;;;;;;;;5090551;28;20118;-80
2022/09/17 02:53:51;;;;;;;5.88;1.42;;;;;;;;;;5090790;28;20158;-80
2022/09/17 02:56:22;;;;;;;6.55;1.52;;;;;;;;;;5090629;28;20023;-81
2022/09/17 02:58:54;;;;;;;4.55;1.70;;;;;;;;;;5090842;28;20024;-80
2022/09/17 03:01:32;;;;;;;4.97;1.48;;;;;;;;;;5090655;28;20579;-77
2022/09/17 03:04:00;;;;;;;2.72;1.35;;;;;;;;;;5072438;28;20034;-78
2022/09/17 03:06:26;;;;;;;4.75;1.60;;;;;;;;;;5090303;28;20124;-77
2022/09/17 03:08:51;;;;;;;4.30;1.80;;;;;;;;;;5090469;28;20111;-78
2022/09/17 03:11:17;;;;;;;3.75;1.50;;;;;;;;;;5090192;28;20043;-77
2022/09/17 03:13:42;;;;;;;6.63;1.70;;;;;;;;;;5090401;28;20155;-77
2022/09/17 03:16:08;;;;;;;3.08;1.50;;;;;;;;;;5090370;28;20077;-76
2022/09/17 03:18:33;;;;;;;3.65;1.50;;;;;;;;;;5090397;28;20104;-76
2022/09/17 03:20:59;;;;;;;5.28;1.50;;;;;;;;;;5090342;28;20380;-77
2022/09/17 03:23:26;;;;;;;4.13;1.40;;;;;;;;;;5090396;28;20483;-77
2022/09/17 03:25:52;;;;;;;5.65;1.38;;;;;;;;;;5071727;28;20142;-77
2022/09/17 03:28:18;;;;;;;4.25;1.40;;;;;;;;;;5090057;28;20573;-77
2022/09/17 03:30:44;;;;;;;7.25;1.75;;;;;;;;;;5071744;28;20035;-76
2022/09/17 03:33:09;;;;;;;4.50;1.60;;;;;;;;;;5090364;28;20547;-77
2022/09/17 03:35:35;;;;;;;3.55;1.40;;;;;;;;;;5090059;28;20637;-76
2022/09/17 03:38:00;;;;;;;6.97;1.50;;;;;;;;;;5090466;28;20479;-77
2022/09/17 03:40:25;;;;;;;3.78;1.35;;;;;;;;;;5089064;28;20203;-77
2022/09/17 03:42:51;;;;;;;8.70;1.40;;;;;;;;;;5089535;28;20072;-77
2022/09/17 03:45:16;;;;;;;4.50;1.73;;;;;;;;;;5089757;28;20047;-78
2022/09/17 03:47:41;;;;;;;4.07;1.45;;;;;;;;;;5090243;28;20035;-77
2022/09/17 03:50:07;;;;;;;6.85;1.70;;;;;;;;;;5089709;28;20032;-77
2022/09/17 03:52:33;;;;;;;3.70;1.35;;;;;;;;;;5090258;28;20089;-77
2022/09/17 03:54:58;;;;;;;4.22;1.73;;;;;;;;;;5089907;28;20028;-77
2022/09/17 03:57:24;;;;;;;2.17;1.15;;;;;;;;;;5089700;28;20020;-77
2022/09/17 03:59:49;;;;;;;4.50;1.75;;;;;;;;;;5089646;28;20035;-77
2022/09/17 04:02:14;;;;;;;6.45;1.85;;;;;;;;;;5089698;28;20030;-77
2022/09/17 04:04:40;;;;;;;5.18;1.42;;;;;;;;;;5089890;28;20024;-76
2022/09/17 04:07:05;;;;;;;5.78;1.50;;;;;;;;;;5089589;28;20500;-77
2022/09/17 04:09:31;;;;;;;5.20;1.60;;;;;;;;;;5089716;28;20028;-77
2022/09/17 04:11:56;;;;;;;5.10;1.63;;;;;;;;;;5071333;28;20127;-77
2022/09/17 04:14:21;;;;;;;4.88;1.25;;;;;;;;;;5089871;28;20085;-77
2022/09/17 04:16:47;;;;;;;4.50;1.30;;;;;;;;;;5089531;28;20055;-77
2022/09/17 04:19:12;;;;;;;4.72;1.30;;;;;;;;;;5089489;28;20494;-76
2022/09/17 04:21:38;;;;;;;5.53;1.55;;;;;;;;;;5089545;28;20407;-76
2022/09/17 04:24:03;;;;;;;5.55;1.50;;;;;;;;;;5089815;28;20531;-76
2022/09/17 04:26:28;;;;;;;3.42;1.50;;;;;;;;;;5089519;28;20034;-76
2022/09/17 04:28:54;;;;;;;4.25;1.40;;;;;;;;;;5089617;28;20059;-76
2022/09/17 04:31:21;;;;;;;6.13;1.38;;;;;;;;;;5089278;28;20492;-77
2022/09/17 04:33:46;;;;;;;6.10;1.60;;;;;;;;;;5089834;28;20039;-77
2022/09/17 04:36:12;;;;;;;3.10;1.20;;;;;;;;;;5089327;28;20028;-77
2022/09/17 04:38:37;;;;;;;7.28;1.35;;;;;;;;;;5089654;28;20024;-77
2022/09/17 04:41:05;;;;;;;3.20;1.50;;;;;;;;;;5089056;28;20024;-76
2022/09/17 04:43:34;;;;;;;3.13;1.50;;;;;;;;;;5089351;28;20391;-77
2022/09/17 04:45:59;;;;;;;4.07;1.30;;;;;;;;;;5089535;28;20587;-77
2022/09/17 04:48:25;;;;;;;4.15;1.55;;;;;;;;;;5089563;28;20035;-76
2022/09/17 04:50:50;;;;;;;3.92;1.30;;;;;;;;;;5088940;28;20063;-76
2022/09/17 04:53:17;;;;;;;5.18;1.50;;;;;;;;;;5091900;28;20035;-77
2022/09/17 04:55:43;;;;;;;3.50;1.45;;;;;;;;;;5092952;28;20028;-77
2022/09/17 04:58:09;;;;;;;4.63;1.40;;;;;;;;;;5093040;28;20028;-76
2022/09/17 05:00:34;;;;;;;4.90;1.45;;;;;;;;;;5092810;28;20399;-76
2022/09/17 05:03:00;;;;;;;4.68;1.23;;;;;;;;;;5093107;28;20130;-76
2022/09/17 05:05:25;;;;;;;4.82;1.40;;;;;;;;;;5092879;28;20035;-76
2022/09/17 05:07:51;;;;;;;4.18;1.33;;;;;;;;;;5092617;28;20492;-76
2022/09/17 05:10:18;;;;;;;4.60;1.45;;;;;;;;;;5092493;28;20064;-77
2022/09/17 05:13:01;;;;;;;5.13;1.48;;;;;;;;;;5074368;28;20028;-77
2022/09/17 05:15:30;;;;;;;3.25;1.35;;;;;;;;;;5092813;28;20495;-77
2022/09/17 05:17:55;;;;;;;7.18;1.60;;;;;;;;;;5092875;28;20110;-76
2022/09/17 05:20:21;;;;;;;3.25;1.25;;;;;;;;;;5092588;28;20024;-77
2022/09/17 05:22:48;;;;;;;3.42;1.35;;;;;;;;;;5092437;28;20020;-76
2022/09/17 05:25:15;;;;;;;6.35;1.50;;;;;;;;;;5092810;28;20099;-77
2022/09/17 05:27:41;;;;;;;5.40;1.80;;;;;;;;;;5092354;28;20016;-77
2022/09/17 05:30:07;;;;;;;4.75;1.40;;;;;;;;;;5092075;28;20500;-77
2022/09/17 05:32:34;;;;;;;3.10;1.17;;;;;;;;;;5092270;28;20024;-78
2022/09/17 05:34:59;;;;;;;4.65;1.20;;;;;;;;;;5092666;28;20506;-76
2022/09/17 05:37:25;;;;;;;5.85;1.50;;;;;;;;;;5092077;28;20032;-76
2022/09/17 05:39:51;;;;;;;3.33;1.30;;;;;;;;;;5092163;28;20484;-76
2022/09/17 05:42:16;;;;;;;3.60;1.23;;;;;;;;;;5092092;28;20023;-77
2022/09/17 05:44:42;;;;;;;5.00;1.40;;;;;;;;;;5092298;28;20107;-77
2022/09/17 05:47:07;;;;;;;5.22;1.35;;;;;;;;;;5091827;28;20020;-76
2022/09/17 05:49:32;;;;;;;4.78;1.20;;;;;;;;;;5091826;28;20042;-76
2022/09/17 05:51:58;;;;;;;4.60;1.42;;;;;;;;;;5091773;28;20286;-77
2022/09/17 05:54:23;;;;;;;3.13;1.20;;;;;;;;;;5092118;28;20032;-77
2022/09/17 05:56:52;;;;;;;3.22;1.35;;;;;;;;;;5073651;28;20054;-77
2022/09/17 05:59:17;;;;;;;5.13;1.30;;;;;;;;;;5091982;28;20031;-76
2022/09/17 06:01:44;;;;;;;2.75;1.27;;;;;;;;;;5091459;28;20023;-76
2022/09/17 06:04:09;;;;;;;3.58;1.30;;;;;;;;;;5090621;28;20111;-77
2022/09/17 06:06:36;;;;;;;3.60;1.33;;;;;;;;;;5091430;28;20521;-77
2022/09/17 06:09:02;;;;;;;4.00;1.20;;;;;;;;;;5073777;28;20031;-76
2022/09/17 06:11:27;;;;;;;7.10;1.40;;;;;;;;;;5091315;28;20028;-76
2022/09/17 06:13:54;;;;;;;4.05;1.40;;;;;;;;;;5091663;28;20039;-76
2022/09/17 06:16:22;;;;;;;5.13;1.30;;;;;;;;;;5091642;28;20031;-77
2022/09/17 06:18:49;;;;;;;3.63;1.30;;;;;;;;;;5091504;28;20032;-76
2022/09/17 06:21:16;;;;;;;7.60;1.67;;;;;;;;;;5091130;28;20028;-77
2022/09/17 06:23:42;;;;;;;7.80;1.40;;;;;;;;;;5073337;28;20024;-76
2022/09/17 06:26:08;;;;;;;6.80;1.45;;;;;;;;;;5091442;28;20024;-77
2022/09/17 06:28:34;;;;;;;4.07;1.38;;;;;;;;;;5091022;28;20078;-76
2022/09/17 06:31:02;;;;;;;5.18;1.30;;;;;;;;;;5091314;28;20024;-78
2022/09/17 06:33:29;;;;;;;9.07;1.80;;;;;;;;;;5091022;28;20024;-76
2022/09/17 06:35:59;;;;;;;3.85;1.35;;;;;;;;;;5091148;28;20027;-76
2022/09/17 06:38:29;;;;;;;7.55;1.65;;;;;;;;;;5091080;28;20028;-77
2022/09/17 06:40:55;;;;;;;3.77;1.40;;;;;;;;;;5090991;28;20047;-76
2022/09/17 06:43:21;;;;;;;4.75;1.30;;;;;;;;;;5090622;28;20032;-77
2022/09/17 06:45:58;;;;;;;3.63;1.42;;;;;;;;;;5091160;28;20119;-76
2022/09/17 06:48:24;;;;;;;5.97;1.30;;;;;;;;;;5090692;28;20028;-76
2022/09/17 06:50:50;;;;;;;4.80;1.50;;;;;;;;;;5090772;28;20063;-77
2022/09/17 06:53:16;;;;;;;6.13;1.40;;;;;;;;;;5090704;28;20056;-77
2022/09/17 06:55:41;;;;;;;3.75;1.55;;;;;;;;;;5090951;28;20016;-77
2022/09/17 06:58:07;;;;;;;5.25;1.30;;;;;;;;;;5090640;28;20020;-77
2022/09/17 07:00:32;;;;;;;3.03;1.27;;;;;;;;;;5090537;28;20486;-77
2022/09/17 07:02:59;;;;;;;3.15;1.40;;;;;;;;;;5072495;28;20026;-78
2022/09/17 07:05:26;;;;;;;5.32;1.42;;;;;;;;;;5090748;28;20453;-79
2022/09/17 07:07:51;;;;;;;6.10;1.58;;;;;;;;;;5090330;28;20047;-78
2022/09/17 07:10:17;;;;;;;5.78;1.52;;;;;;;;;;5090282;28;20025;-78
2022/09/17 07:12:42;;;;;;;8.30;1.65;;;;;;;;;;5090111;28;20055;-78
2022/09/17 07:15:12;;;;;;;4.95;1.50;;;;;;;;;;5090181;28;20032;-79
2022/09/17 07:17:39;;;;;;;4.30;1.45;;;;;;;;;;5090247;28;20024;-78
2022/09/17 07:20:06;;;;;;;6.55;1.50;;;;;;;;;;5090391;28;20113;-77
2022/09/17 07:22:32;;;;;;;6.10;1.92;;;;;;;;;;5090186;28;20533;-78
2022/09/17 07:24:57;;;;;;;10.50;1.90;;;;;;;;;;5090263;28;20043;-77
2022/09/17 07:27:22;;;;;;;8.57;1.80;;;;;;;;;;5090104;28;20415;-77
2022/09/17 07:29:48;;;;;;;5.38;1.58;;;;;;;;;;5090247;28;20054;-79
2022/09/17 07:32:13;;;;;;;4.65;1.40;;;;;;;;;;5089672;28;20020;-79
2022/09/17 07:34:38;;;;;;;4.47;1.38;;;;;;;;;;5090403;28;20024;-77
2022/09/17 07:37:04;;;;;;;3.58;1.30;;;;;;;;;;5072121;28;20476;-79
2022/09/17 07:39:29;;;;;;;5.90;1.67;;;;;;;;;;5090071;28;20040;-80
2022/09/17 07:41:55;;;;;;;4.15;1.48;;;;;;;;;;5089994;28;20511;-80
2022/09/17 07:44:21;;;;;;;4.55;1.48;;;;;;;;;;5089716;28;20024;-79
2022/09/17 07:46:46;;;;;;;5.45;1.70;;;;;;;;;;5090013;28;20487;-80
2022/09/17 07:49:12;;;;;;;7.05;1.60;;;;;;;;;;5089772;28;20122;-80
2022/09/17 07:51:37;;;;;;;6.75;1.33;;;;;;;;;;5089762;28;20031;-80
2022/09/17 07:54:03;;;;;;;5.53;1.60;;;;;;;;;;5089957;28;20599;-79
2022/09/17 07:56:28;;;;;;;5.88;1.40;;;;;;;;;;5089980;28;20062;-78
2022/09/17 07:58:54;;;;;;;4.90;1.52;;;;;;;;;;5089679;28;20035;-78
2022/09/17 08:01:21;;;;;;;5.07;1.50;;;;;;;;;;5090002;28;20028;-79
2022/09/17 08:03:50;;;;;;;6.13;1.40;;;;;;;;;;5089716;28;20036;-80
2022/09/17 08:06:19;;;;;;;4.80;1.70;;;;;;;;;;5089572;28;20028;-81
2022/09/17 08:08:45;;;;;;;8.50;1.40;;;;;;;;;;5089670;28;20056;-81
2022/09/17 08:11:16;;;;;;;4.80;1.48;;;;;;;;;;5089729;28;20067;-79
2022/09/17 08:13:42;;;;;;;8.80;1.52;;;;;;;;;;5089376;28;20081;-78
2022/09/17 08:16:14;;;;;;;8.98;1.73;;;;;;;;;;5089873;28;20426;-79
2022/09/17 08:18:43;;;;;;;5.20;1.63;;;;;;;;;;5089559;28;20063;-79
2022/09/17 08:21:11;;;;;;;5.50;1.45;;;;;;;;;;5089451;28;20055;-79
2022/09/17 08:23:38;;;;;;;3.63;1.25;;;;;;;;;;5089429;28;20073;-79
2022/09/17 08:26:07;;;;;;;6.93;1.30;;;;;;;;;;5089614;28;20031;-78
2022/09/17 08:28:33;;;;;;;6.78;1.75;;;;;;;;;;5092704;28;20024;-80
2022/09/17 08:31:01;;;;;;;3.53;1.30;;;;;;;;;;5093525;28;20036;-80
2022/09/17 08:33:31;;;;;;;4.05;1.40;;;;;;;;;;5093544;28;20035;-80
2022/09/17 08:35:58;;;;;;;6.40;1.50;;;;;;;;;;5093819;28;20055;-80
2022/09/17 08:38:27;;;;;;;5.00;1.50;;;;;;;;;;5093196;28;20024;-81
2022/09/17 08:41:11;;;;;;;4.78;1.40;;;;;;;;;;5093364;28;20684;-81
2022/09/17 08:44:01;;;;;;;6.90;1.55;;;;;;;;;;5093095;28;20106;-80
2022/09/17 08:46:29;;;;;;;4.13;1.40;;;;;;;;;;5093431;28;20159;-81
2022/09/17 08:49:10;;;;;;;6.13;2.25;;;;;;;;;;5093040;28;20024;-81
2022/09/17 08:51:53;;;;;;;5.13;1.45;;;;;;;;;;5093084;28;20024;-81
2022/09/17 08:54:32;;;;;;;3.97;1.10;;;;;;;;;;5092988;28;20111;-81
2022/09/17 08:57:14;;;;;;;4.47;1.33;;;;;;;;;;5093023;28;20475;-80
2022/09/17 09:00:16;;;;;;;3.92;1.30;;;;;;;;;;5092931;28;20062;-81
2022/09/17 09:03:03;;;;;;;2.97;1.10;;;;;;;;;;5092878;28;20088;-80
2022/09/17 09:05:47;;;;;;;3.13;1.10;;;;;;;;;;5093153;28;20058;-81
2022/09/17 09:08:29;;;;;;;4.47;1.52;;;;;;;;;;5093070;28;20058;-80
2022/09/17 09:10:57;;;;;;;3.90;1.17;;;;;;;;;;5092782;28;20089;-81
2022/09/17 09:13:28;;;;;;;5.63;1.30;;;;;;;;;;5074683;28;20097;-77
2022/09/17 09:15:56;;;;;;;;;;;;;;;;;;5093066;28;20391;-78
2022/09/17 09:18:24;;;;;;;4.15;1.13;;;;;;;;;;5092434;28;20442;-78
2022/09/17 09:20:54;;;;;;;4.03;1.30;;;;;;;;;;5092559;28;20020;-78
2022/09/17 09:23:28;;;;;;;4.80;1.30;;;;;;;;;;5074434;28;20058;-78
2022/09/17 09:26:07;;;;;;;6.50;1.27;;;;;;;;;;5092556;28;20086;-77
2022/09/17 09:28:51;;;;;;;3.45;0.98;;;;;;;;;;5074244;28;20091;-77
2022/09/17 09:31:41;;;;;;;3.85;1.10;;;;;;;;;;5092188;28;20641;-76
2022/09/17 09:34:08;;;;;;;4.28;1.20;;;;;;;;;;5092098;28;20107;-76
2022/09/17 09:36:33;;;;;;;3.85;1.20;;;;;;;;;;5074042;28;20028;-76
2022/09/17 09:39:04;;;;;;;2.33;0.90;;;;;;;;;;5092097;28;20666;-76
2022/09/17 09:42:01;;;;;;;5.00;1.10;;;;;;;;;;5092523;28;20020;-77
2022/09/17 09:44:27;;;;;;;3.22;1.13;;;;;;;;;;5039981;28;20044;-77
2022/09/17 09:47:15;;;;;;;3.22;0.90;;;;;;;;;;5092156;28;20028;-76
2022/09/17 09:50:02;;;;;;;2.38;0.95;;;;;;;;;;5060429;28;20428;-76
2022/09/17 09:52:39;;;;;;;2.83;1.23;;;;;;;;;;5091699;28;20571;-77
2022/09/17 09:55:10;;;;;;;2.17;0.98;;;;;;;;;;5091896;28;20039;-77
2022/09/17 09:58:08;;;;;;;6.55;1.10;;;;;;;;;;5091894;28;20080;-76
2022/09/17 10:00:41;;;;;;;8.43;1.50;;;;;;;;;;5035902;28;20047;-77
2022/09/17 10:03:25;;;;;;;3.22;1.20;;;;;;;;;;5091573;28;20044;-77
2022/09/17 10:06:04;;;;;;;5.13;1.40;;;;;;;;;;5091604;28;20046;-77
2022/09/17 10:08:35;;;;;;;3.20;1.13;;;;;;;;;;5091380;28;20044;-76
2022/09/17 10:11:12;;;;;;;5.75;1.17;;;;;;;;;;5091303;28;20028;-76
2022/09/17 10:13:38;;;;;;;4.32;1.20;;;;;;;;;;5091616;28;20039;-76
2022/09/17 10:16:28;;;;;;;5.28;1.40;;;;;;;;;;5091477;28;20081;-77
2022/09/17 10:19:02;;;;;;;3.93;1.07;;;;;;;;;;5091617;28;20056;-77
2022/09/17 10:21:32;;;;;;;5.65;1.40;;;;;;;;;;5091383;28;20020;-76
2022/09/17 10:23:58;;;;;;;2.45;1.10;;;;;;;;;;5091482;28;20071;-77
2022/09/17 10:26:35;;;;;;;5.28;1.30;;;;;;;;;;5091104;28;20621;-76
2022/09/17 10:29:03;;;;;;;5.95;1.35;;;;;;;;;;5091160;28;20113;-77
2022/09/17 10:31:56;;;;;;;7.10;1.20;;;;;;;;;;5090927;28;20730;-77
2022/09/17 10:34:26;;;;;;;4.28;1.20;;;;;;;;;;5086802;28;20101;-77
2022/09/17 10:36:52;;;;;;;;;;;;;;;;;;5091887;28;20052;-76
2022/09/17 10:39:26;;;;;;;6.78;1.30;;;;;;;;;;5091120;28;19965;-77
2022/09/17 10:42:02;;;;;;;2.42;1.13;;;;;;;;;;5090898;28;20031;-77
2022/09/17 10:44:38;;;;;;;3.00;1.08;;;;;;;;;;5090815;28;20153;-77
2022/09/17 10:47:10;;;;;;;5.40;0.98;;;;;;;;;;5091164;28;20038;-78
2022/09/17 10:50:00;;;;;;;3.83;1.20;;;;;;;;;;5090419;28;20051;-77
2022/09/17 10:52:36;;;;;;;3.97;1.20;;;;;;;;;;5090857;28;20035;-79
2022/09/17 10:55:23;;;;;;;3.55;1.23;;;;;;;;;;5090655;28;20066;-77
2022/09/17 10:58:10;;;;;;;4.20;1.27;;;;;;;;;;5090745;28;20035;-77
2022/09/17 11:00:55;;;;;;;4.18;1.20;;;;;;;;;;5090475;28;20032;-77
2022/09/17 11:03:58;;;;;;;4.50;1.10;;;;;;;;;;5090609;28;20114;-76
2022/09/17 11:06:42;;;;;;;2.90;1.15;;;;;;;;;;5090268;28;20039;-76
2022/09/17 11:09:31;;;;;;;6.82;1.60;;;;;;;;;;5072685;28;20080;-76
2022/09/17 11:11:56;;;;;;;3.60;1.30;;;;;;;;;;5090306;28;20028;-77
2022/09/17 11:14:36;;;;;;;6.13;1.10;;;;;;;;;;5090553;28;20027;-77
2022/09/17 11:17:02;;;;;;;;;;;;;;;;;;5072551;28;20034;-78
2022/09/17 11:19:56;;;;;;;2.73;1.20;;;;;;;;;;5090229;28;19912;-77
2022/09/17 11:22:40;;;;;;;6.32;1.20;;;;;;;;;;5078655;28;20302;-77
2022/09/17 11:25:34;;;;;;;4.03;1.25;;;;;;;;;;5072105;28;20034;-76
2022/09/17 11:28:07;;;;;;;4.05;1.20;;;;;;;;;;5090400;28;20024;-77
2022/09/17 11:30:43;;;;;;;3.30;1.20;;;;;;;;;;5090037;28;20027;-77
2022/09/17 11:34:03;;;;;;;3.75;1.20;;;;;;;;;;5071853;28;20039;-79
2022/09/17 11:36:41;;;;;;;4.82;1.30;;;;;;;;;;5085805;28;20097;-77
2022/09/17 11:39:15;;;;;;;5.30;1.20;;;;;;;;;;5090339;28;20590;-76
2022/09/17 11:41:45;;;;;;;3.17;1.10;;;;;;;;;;5090026;28;20031;-77
2022/09/17 11:44:15;;;;;;;3.97;1.00;;;;;;;;;;5090102;28;20080;-77
2022/09/17 11:46:46;;;;;;;;;;;;;;;;;;5090259;28;20028;-77
2022/09/17 11:49:35;;;;;;;2.80;1.10;;;;;;;;;;5090020;28;20481;-77
2022/09/17 11:52:10;;;;;;;2.65;1.00;;;;;;;;;;5089609;28;20075;-76
2022/09/17 11:55:20;;;;;;;2.33;0.93;;;;;;;;;;5089989;28;20054;-76
2022/09/17 11:57:50;;;;;;;3.22;1.20;;;;;;;;;;5078659;28;20029;-76
2022/09/17 12:00:17;;;;;;;3.40;1.02;;;;;;;;;;5089689;28;20435;-75
2022/09/17 12:03:00;;;;;;;4.28;1.10;;;;;;;;;;5091648;28;20028;-76
2022/09/17 12:05:30;;;;;;;1.70;0.80;;;;;;;;;;5093915;28;20035;-76
2022/09/17 12:08:08;;;;;;;4.57;1.00;;;;;;;;;;5093942;28;20044;-77
2022/09/17 12:10:37;;;;;;;1.77;0.80;;;;;;;;;;5093627;28;20024;-77
2022/09/17 12:13:08;;;;;;;2.05;0.85;;;;;;;;;;5093750;28;20035;-75
2022/09/17 12:15:37;;;;;;;2.92;1.05;;;;;;;;;;5093839;28;20103;-76
2022/09/17 12:18:20;;;;;;;3.33;0.88;;;;;;;;;;5094091;28;20024;-76
2022/09/17 12:20:49;;;;;;;4.10;1.02;;;;;;;;;;5093804;28;20024;-76
2022/09/17 12:23:30;;;;;;;4.53;1.00;;;;;;;;;;5093727;28;20076;-77
2022/09/17 12:26:12;;;;;;;4.25;0.90;;;;;;;;;;5093751;28;20020;-76
2022/09/17 12:28:42;;;;;;;1.85;0.77;;;;;;;;;;5093518;28;20060;-78
2022/09/17 12:31:17;;;;;;;1.88;0.88;;;;;;;;;;5093425;28;20521;-78
2022/09/17 12:33:50;;;;;;;1.55;0.80;;;;;;;;;;5093614;28;20051;-78
2022/09/17 12:36:22;;;;;;;1.17;0.73;;;;;;;;;;5093447;28;20016;-78
2022/09/17 12:39:16;;;;;;;3.20;1.00;;;;;;;;;;5093597;28;20024;-78
2022/09/17 12:41:55;;;;;;;2.47;0.90;;;;;;;;;;5093246;28;20430;-74
2022/09/17 12:44:26;;;;;;;2.92;0.98;;;;;;;;;;5093168;28;20067;-78
2022/09/17 12:46:54;;;;;;;2.47;0.85;;;;;;;;;;5093010;28;20108;-78
2022/09/17 12:49:57;;;;;;;4.07;1.00;;;;;;;;;;5074821;28;20511;-77
2022/09/17 12:53:01;;;;;;;3.78;0.95;;;;;;;;;;5092788;28;20438;-78
2022/09/17 12:55:37;;;;;;;4.03;0.93;;;;;;;;;;5093437;28;20036;-75
2022/09/17 12:58:32;;;;;;;2.65;0.77;;;;;;;;;;5093101;28;20514;-76
2022/09/17 13:01:21;;;;;;;2.38;0.70;;;;;;;;;;5092874;28;20044;-76
2022/09/17 13:04:03;;;;;;;1.92;0.80;;;;;;;;;;5092850;28;20024;-75
2022/09/17 13:06:38;;;;;;;2.10;0.70;;;;;;;;;;5092449;28;20056;-75
2022/09/17 13:09:41;;;;;;;1.80;0.68;;;;;;;;;;5092982;28;20024;-75
2022/09/17 13:12:15;;;;;;;4.03;1.20;;;;;;;;;;5092456;28;20031;-76
2022/09/17 13:15:19;;;;;;;3.53;1.23;;;;;;;;;;5092495;28;20035;-76
2022/09/17 13:17:57;;;;;;;1.75;0.70;;;;;;;;;;5092512;28;20067;-75
2022/09/17 13:20:29;;;;;;;3.47;0.70;;;;;;;;;;5092729;28;20024;-75
2022/09/17 13:22:56;;;;;;;1.77;0.93;;;;;;;;;;5092187;28;20062;-75
2022/09/17 13:25:23;;;;;;;1.73;0.80;;;;;;;;;;5092946;28;20039;-75
2022/09/17 13:28:02;;;;;;;2.58;0.90;;;;;;;;;;5092497;28;20051;-76
2022/09/17 13:30:54;;;;;;;2.25;1.00;;;;;;;;;;5092514;28;20032;-75
2022/09/17 13:33:55;;;;;;;2.75;0.93;;;;;;;;;;5092436;28;20038;-76
2022/09/17 13:36:41;;;;;;;3.10;0.90;;;;;;;;;;5092266;28;20031;-76
2022/09/17 13:39:27;;;;;;;3.08;0.90;;;;;;;;;;5092280;28;20484;-76
2022/09/17 13:42:04;;;;;;;2.25;0.70;;;;;;;;;;5091976;28;20035;-76
2022/09/17 13:44:34;;;;;;;1.38;0.60;;;;;;;;;;5092261;28;20050;-76
2022/09/17 13:47:30;;;;;;;2.28;0.70;;;;;;;;;;5092007;28;20400;-78
2022/09/17 13:50:05;;;;;;;2.38;1.00;;;;;;;;;;5053480;28;20064;-76
2022/09/17 13:52:46;;;;;;;2.72;0.70;;;;;;;;;;5091631;28;20115;-76
2022/09/17 13:55:33;;;;;;;2.33;0.80;;;;;;;;;;5091838;28;20065;-79
2022/09/17 13:58:02;;;;;;;3.20;0.90;;;;;;;;;;5091646;28;20036;-78
2022/09/17 14:00:55;;;;;;;1.83;0.70;;;;;;;;;;5092238;28;20586;-75
2022/09/17 14:03:30;;;;;;;2.95;0.80;;;;;;;;;;5091712;28;20023;-76
2022/09/17 14:06:04;;;;;;;1.92;0.80;;;;;;;;;;5092224;28;20024;-78
2022/09/17 14:08:46;;;;;;;5.90;0.90;;;;;;;;;;5091475;28;20085;-78
2022/09/17 14:11:27;;;;;;;3.90;0.98;;;;;;;;;;5073555;28;20036;-77
2022/09/17 14:13:56;;;;;;;3.88;0.80;;;;;;;;;;5091062;28;20505;-78
2022/09/17 14:16:34;;;;;;;3.50;0.80;;;;;;;;;;5091662;28;20559;-78
2022/09/17 14:19:14;;;;;;;1.92;0.70;;;;;;;;;;5091461;28;20024;-78
2022/09/17 14:21:43;;;;;;;1.77;0.80;;;;;;;;;;5091596;28;20027;-76
2022/09/17 14:24:38;;;;;;;1.13;0.70;;;;;;;;;;5091208;28;20032;-78
2022/09/17 14:27:18;;;;;;;3.85;0.90;;;;;;;;;;5073026;28;20098;-78
2022/09/17 14:29:55;;;;;;;4.25;0.90;;;;;;;;;;5091392;28;20071;-79
2022/09/17 14:32:31;;;;;;;2.08;0.70;;;;;;;;;;5091126;28;20114;-78
2022/09/17 14:34:59;;;;;;;1.67;0.70;;;;;;;;;;5091192;28;20027;-78
2022/09/17 14:37:26;;;;;;;1.77;0.70;;;;;;;;;;5091209;28;20016;-79
2022/09/17 14:39:51;;;;;;;4.18;0.93;;;;;;;;;;5091456;28;20032;-79
2022/09/17 14:42:26;;;;;;;2.92;0.90;;;;;;;;;;5090981;28;20035;-79
2022/09/17 14:44:59;;;;;;;1.73;0.70;;;;;;;;;;5091125;28;20103;-78
2022/09/17 14:47:25;;;;;;;2.15;0.73;;;;;;;;;;5090730;28;20028;-79
2022/09/17 14:49:52;;;;;;;2.08;0.75;;;;;;;;;;5090895;28;20387;-75
2022/09/17 14:52:31;;;;;;;2.22;0.80;;;;;;;;;;5072110;28;20504;-79
2022/09/17 14:55:16;;;;;;;1.33;0.68;;;;;;;;;;5072603;28;20149;-79
2022/09/17 14:57:45;;;;;;;3.13;0.70;;;;;;;;;;5090699;28;20062;-78
2022/09/17 15:00:20;;;;;;;1.48;0.80;;;;;;;;;;5091086;28;20552;-79
2022/09/17 15:02:50;;;;;;;2.28;0.70;;;;;;;;;;5090410;28;20032;-78
2022/09/17 15:05:17;;;;;;;2.13;0.80;;;;;;;;;;5090525;28;20484;-78
2022/09/17 15:07:44;;;;;;;1.40;0.60;;;;;;;;;;5090290;28;20051;-79
2022/09/17 15:10:18;;;;;;;1.55;0.70;;;;;;;;;;5090572;28;20024;-79
2022/09/17 15:12:46;;;;;;;4.35;0.80;;;;;;;;;;5090259;28;20044;-79
2022/09/17 15:15:21;;;;;;;1.80;0.70;;;;;;;;;;5090551;28;20043;-79
2022/09/17 15:17:48;;;;;;;1.40;0.73;;;;;;;;;;5090467;28;20092;-80